sensor_id;sensor_type;location;lat;lon;timestamp;P1;durP1;ratioP1;P2;durP2;ratioP2
42702;SDS011;28341;52.064;4.920;2023-05-21T00:01:57;6.30;;;3.17;;
42702;SDS011;28341;52.064;4.920;2023-05-21T00:04:03;5.70;;;3.10;;
42702;SDS011;28341;52.064;4.920;2023-05-21T00:06:08;3.53;;;2.67;;
42702;SDS011;28341;52.064;4.920;2023-05-21T00:08:12;3.58;;;2.58;;
42702;SDS011;28341;52.064;4.920;2023-05-21T00:10:19;3.97;;;3.00;;
42702;SDS011;28341;52.064;4.920;2023-05-21T00:12:23;4.25;;;3.47;;
42702;SDS011;28341;52.064;4.920;2023-05-21T00:14:28;5.35;;;2.75;;
42702;SDS011;28341;52.064;4.920;2023-05-21T00:16:32;4.68;;;3.40;;
42702;SDS011;28341;52.064;4.920;2023-05-21T00:18:37;5.10;;;3.00;;
42702;SDS011;28341;52.064;4.920;2023-05-21T00:20:41;3.80;;;2.72;;
42702;SDS011;28341;52.064;4.920;2023-05-21T00:22:46;4.80;;;2.78;;
42702;SDS011;28341;52.064;4.920;2023-05-21T00:24:51;4.47;;;2.88;;
42702;SDS011;28341;52.064;4.920;2023-05-21T00:26:58;5.63;;;3.03;;
42702;SDS011;28341;52.064;4.920;2023-05-21T00:29:02;5.68;;;3.03;;
42702;SDS011;28341;52.064;4.920;2023-05-21T00:31:07;5.78;;;3.35;;
42702;SDS011;28341;52.064;4.920;2023-05-21T00:33:11;8.10;;;4.10;;
42702;SDS011;28341;52.064;4.920;2023-05-21T00:35:15;7.65;;;3.47;;
42702;SDS011;28341;52.064;4.920;2023-05-21T00:37:20;8.73;;;4.05;;
42702;SDS011;28341;52.064;4.920;2023-05-21T00:39:25;6.35;;;3.53;;
42702;SDS011;28341;52.064;4.920;2023-05-21T00:41:29;6.43;;;4.00;;
42702;SDS011;28341;52.064;4.920;2023-05-21T00:43:37;5.22;;;3.50;;
42702;SDS011;28341;52.064;4.920;2023-05-21T00:45:41;4.75;;;3.53;;
42702;SDS011;28341;52.064;4.920;2023-05-21T00:47:47;4.30;;;3.55;;
42702;SDS011;28341;52.064;4.920;2023-05-21T00:49:53;5.75;;;4.13;;
42702;SDS011;28341;52.064;4.920;2023-05-21T00:51:58;4.28;;;3.47;;
42702;SDS011;28341;52.064;4.920;2023-05-21T00:54:03;6.25;;;3.67;;
42702;SDS011;28341;52.064;4.920;2023-05-21T00:56:07;5.15;;;3.80;;
42702;SDS011;28341;52.064;4.920;2023-05-21T00:58:12;5.32;;;3.70;;
42702;SDS011;28341;52.064;4.920;2023-05-21T01:00:19;7.82;;;3.60;;
42702;SDS011;28341;52.064;4.920;2023-05-21T01:02:25;6.07;;;3.78;;
42702;SDS011;28341;52.064;4.920;2023-05-21T01:04:32;4.65;;;3.40;;
42702;SDS011;28341;52.064;4.920;2023-05-21T01:06:36;6.28;;;4.35;;
42702;SDS011;28341;52.064;4.920;2023-05-21T01:08:41;7.40;;;4.07;;
42702;SDS011;28341;52.064;4.920;2023-05-21T01:10:46;5.97;;;3.65;;
42702;SDS011;28341;52.064;4.920;2023-05-21T01:12:51;4.78;;;3.58;;
42702;SDS011;28341;52.064;4.920;2023-05-21T01:14:56;5.50;;;3.85;;
42702;SDS011;28341;52.064;4.920;2023-05-21T01:17:04;4.65;;;3.70;;
42702;SDS011;28341;52.064;4.920;2023-05-21T01:19:12;7.88;;;3.72;;
42702;SDS011;28341;52.064;4.920;2023-05-21T01:21:19;4.47;;;3.50;;
42702;SDS011;28341;52.064;4.920;2023-05-21T01:23:27;5.55;;;4.00;;
42702;SDS011;28341;52.064;4.920;2023-05-21T01:25:32;8.13;;;4.22;;
42702;SDS011;28341;52.064;4.920;2023-05-21T01:27:37;10.07;;;4.15;;
42702;SDS011;28341;52.064;4.920;2023-05-21T01:29:43;6.80;;;3.97;;
42702;SDS011;28341;52.064;4.920;2023-05-21T01:31:51;6.95;;;4.00;;
42702;SDS011;28341;52.064;4.920;2023-05-21T01:34:09;6.03;;;4.07;;
42702;SDS011;28341;52.064;4.920;2023-05-21T01:36:15;5.68;;;4.10;;
42702;SDS011;28341;52.064;4.920;2023-05-21T01:38:28;5.25;;;3.80;;
42702;SDS011;28341;52.064;4.920;2023-05-21T01:40:39;9.45;;;4.03;;
42702;SDS011;28341;52.064;4.920;2023-05-21T01:42:48;7.97;;;4.80;;
42702;SDS011;28341;52.064;4.920;2023-05-21T01:44:53;8.52;;;4.15;;
42702;SDS011;28341;52.064;4.920;2023-05-21T01:46:58;7.65;;;4.30;;
42702;SDS011;28341;52.064;4.920;2023-05-21T01:49:03;6.90;;;4.05;;
42702;SDS011;28341;52.064;4.920;2023-05-21T01:51:08;5.50;;;4.07;;
42702;SDS011;28341;52.064;4.920;2023-05-21T01:53:12;5.70;;;4.20;;
42702;SDS011;28341;52.064;4.920;2023-05-21T01:55:21;8.50;;;4.57;;
42702;SDS011;28341;52.064;4.920;2023-05-21T01:57:26;6.90;;;3.88;;
42702;SDS011;28341;52.064;4.920;2023-05-21T01:59:31;9.43;;;4.53;;
42702;SDS011;28341;52.064;4.920;2023-05-21T02:01:35;4.43;;;4.03;;
42702;SDS011;28341;52.064;4.920;2023-05-21T02:03:40;4.60;;;3.92;;
42702;SDS011;28341;52.064;4.920;2023-05-21T02:05:45;5.63;;;4.43;;
42702;SDS011;28341;52.064;4.920;2023-05-21T02:07:51;9.32;;;4.85;;
42702;SDS011;28341;52.064;4.920;2023-05-21T02:09:56;8.15;;;4.38;;
42702;SDS011;28341;52.064;4.920;2023-05-21T02:12:03;5.03;;;4.30;;
42702;SDS011;28341;52.064;4.920;2023-05-21T02:14:08;7.45;;;4.60;;
42702;SDS011;28341;52.064;4.920;2023-05-21T02:16:13;7.85;;;4.90;;
42702;SDS011;28341;52.064;4.920;2023-05-21T02:18:18;7.85;;;4.95;;
42702;SDS011;28341;52.064;4.920;2023-05-21T02:20:23;6.70;;;4.80;;
42702;SDS011;28341;52.064;4.920;2023-05-21T02:22:28;8.98;;;4.80;;
42702;SDS011;28341;52.064;4.920;2023-05-21T02:24:32;7.07;;;4.70;;
42702;SDS011;28341;52.064;4.920;2023-05-21T02:26:36;7.32;;;4.95;;
42702;SDS011;28341;52.064;4.920;2023-05-21T02:28:45;9.07;;;5.78;;
42702;SDS011;28341;52.064;4.920;2023-05-21T02:30:52;8.38;;;5.20;;
42702;SDS011;28341;52.064;4.920;2023-05-21T02:32:56;7.53;;;4.95;;
42702;SDS011;28341;52.064;4.920;2023-05-21T02:35:02;8.60;;;5.68;;
42702;SDS011;28341;52.064;4.920;2023-05-21T02:37:08;9.73;;;5.35;;
42702;SDS011;28341;52.064;4.920;2023-05-21T02:39:12;6.80;;;5.30;;
42702;SDS011;28341;52.064;4.920;2023-05-21T02:41:17;7.75;;;5.32;;
42702;SDS011;28341;52.064;4.920;2023-05-21T02:43:22;6.80;;;5.03;;
42702;SDS011;28341;52.064;4.920;2023-05-21T02:45:29;9.95;;;5.07;;
42702;SDS011;28341;52.064;4.920;2023-05-21T02:47:34;8.32;;;5.30;;
42702;SDS011;28341;52.064;4.920;2023-05-21T02:49:40;6.13;;;4.80;;
42702;SDS011;28341;52.064;4.920;2023-05-21T02:51:45;7.22;;;5.20;;
42702;SDS011;28341;52.064;4.920;2023-05-21T02:53:49;8.00;;;5.05;;
42702;SDS011;28341;52.064;4.920;2023-05-21T02:55:53;8.10;;;5.28;;
42702;SDS011;28341;52.064;4.920;2023-05-21T02:57:58;7.88;;;4.97;;
42702;SDS011;28341;52.064;4.920;2023-05-21T03:00:03;8.10;;;5.15;;
42702;SDS011;28341;52.064;4.920;2023-05-21T03:02:14;6.75;;;5.45;;
42702;SDS011;28341;52.064;4.920;2023-05-21T03:04:19;6.20;;;5.20;;
42702;SDS011;28341;52.064;4.920;2023-05-21T03:06:24;8.25;;;5.05;;
42702;SDS011;28341;52.064;4.920;2023-05-21T03:08:28;9.93;;;5.18;;
42702;SDS011;28341;52.064;4.920;2023-05-21T03:10:33;10.75;;;5.20;;
42702;SDS011;28341;52.064;4.920;2023-05-21T03:12:38;7.22;;;5.38;;
42702;SDS011;28341;52.064;4.920;2023-05-21T03:14:42;6.40;;;5.28;;
42702;SDS011;28341;52.064;4.920;2023-05-21T03:16:47;9.27;;;5.40;;
42702;SDS011;28341;52.064;4.920;2023-05-21T03:18:54;7.57;;;5.45;;
42702;SDS011;28341;52.064;4.920;2023-05-21T03:20:58;7.45;;;5.05;;
42702;SDS011;28341;52.064;4.920;2023-05-21T03:23:03;8.65;;;5.22;;
42702;SDS011;28341;52.064;4.920;2023-05-21T03:25:08;7.57;;;5.72;;
42702;SDS011;28341;52.064;4.920;2023-05-21T03:27:13;6.38;;;5.20;;
42702;SDS011;28341;52.064;4.920;2023-05-21T03:29:18;6.63;;;5.63;;
42702;SDS011;28341;52.064;4.920;2023-05-21T03:31:24;7.32;;;5.65;;
42702;SDS011;28341;52.064;4.920;2023-05-21T03:33:43;10.85;;;6.18;;
42702;SDS011;28341;52.064;4.920;2023-05-21T03:35:58;8.57;;;6.18;;
42702;SDS011;28341;52.064;4.920;2023-05-21T03:38:07;9.73;;;5.72;;
42702;SDS011;28341;52.064;4.920;2023-05-21T03:40:12;8.70;;;6.40;;
42702;SDS011;28341;52.064;4.920;2023-05-21T03:42:17;8.65;;;6.13;;
42702;SDS011;28341;52.064;4.920;2023-05-21T03:44:26;9.02;;;5.75;;
42702;SDS011;28341;52.064;4.920;2023-05-21T03:46:43;8.93;;;5.70;;
42702;SDS011;28341;52.064;4.920;2023-05-21T03:48:56;7.88;;;5.55;;
42702;SDS011;28341;52.064;4.920;2023-05-21T03:51:06;8.02;;;6.75;;
42702;SDS011;28341;52.064;4.920;2023-05-21T03:53:12;6.22;;;5.40;;
42702;SDS011;28341;52.064;4.920;2023-05-21T03:55:18;9.65;;;6.30;;
42702;SDS011;28341;52.064;4.920;2023-05-21T03:57:23;8.68;;;6.47;;
42702;SDS011;28341;52.064;4.920;2023-05-21T03:59:28;9.35;;;6.30;;
42702;SDS011;28341;52.064;4.920;2023-05-21T04:01:33;9.88;;;6.53;;
42702;SDS011;28341;52.064;4.920;2023-05-21T04:03:38;9.93;;;6.50;;
42702;SDS011;28341;52.064;4.920;2023-05-21T04:05:44;9.93;;;6.82;;
42702;SDS011;28341;52.064;4.920;2023-05-21T04:07:51;9.10;;;6.70;;
42702;SDS011;28341;52.064;4.920;2023-05-21T04:09:58;10.18;;;6.35;;
42702;SDS011;28341;52.064;4.920;2023-05-21T04:12:03;8.65;;;6.30;;
42702;SDS011;28341;52.064;4.920;2023-05-21T04:14:10;8.30;;;6.97;;
42702;SDS011;28341;52.064;4.920;2023-05-21T04:16:14;8.23;;;6.80;;
42702;SDS011;28341;52.064;4.920;2023-05-21T04:18:20;8.02;;;6.40;;
42702;SDS011;28341;52.064;4.920;2023-05-21T04:20:26;8.63;;;7.18;;
42702;SDS011;28341;52.064;4.920;2023-05-21T04:22:30;8.77;;;6.60;;
42702;SDS011;28341;52.064;4.920;2023-05-21T04:24:37;9.13;;;7.05;;
42702;SDS011;28341;52.064;4.920;2023-05-21T04:26:49;9.40;;;7.35;;
42702;SDS011;28341;52.064;4.920;2023-05-21T04:28:55;9.80;;;6.60;;
42702;SDS011;28341;52.064;4.920;2023-05-21T04:31:02;10.48;;;7.53;;
42702;SDS011;28341;52.064;4.920;2023-05-21T04:33:07;11.18;;;6.60;;
42702;SDS011;28341;52.064;4.920;2023-05-21T04:35:12;9.25;;;7.10;;
42702;SDS011;28341;52.064;4.920;2023-05-21T04:37:17;11.65;;;7.00;;
42702;SDS011;28341;52.064;4.920;2023-05-21T04:39:23;8.15;;;6.40;;
42702;SDS011;28341;52.064;4.920;2023-05-21T04:41:30;9.13;;;6.72;;
42702;SDS011;28341;52.064;4.920;2023-05-21T04:43:36;9.60;;;6.57;;
42702;SDS011;28341;52.064;4.920;2023-05-21T04:45:43;8.82;;;6.68;;
42702;SDS011;28341;52.064;4.920;2023-05-21T04:47:47;9.93;;;6.50;;
42702;SDS011;28341;52.064;4.920;2023-05-21T04:49:52;9.57;;;6.22;;
42702;SDS011;28341;52.064;4.920;2023-05-21T04:51:56;8.95;;;6.60;;
42702;SDS011;28341;52.064;4.920;2023-05-21T04:54:00;7.18;;;6.43;;
42702;SDS011;28341;52.064;4.920;2023-05-21T04:56:05;8.25;;;6.53;;
42702;SDS011;28341;52.064;4.920;2023-05-21T04:58:12;10.00;;;6.20;;
42702;SDS011;28341;52.064;4.920;2023-05-21T05:00:19;10.98;;;6.82;;
42702;SDS011;28341;52.064;4.920;2023-05-21T05:02:24;8.43;;;6.55;;
42702;SDS011;28341;52.064;4.920;2023-05-21T05:04:29;10.02;;;7.10;;
42702;SDS011;28341;52.064;4.920;2023-05-21T05:06:34;7.22;;;6.47;;
42702;SDS011;28341;52.064;4.920;2023-05-21T05:08:39;8.45;;;6.40;;
42702;SDS011;28341;52.064;4.920;2023-05-21T05:10:44;10.25;;;5.72;;
42702;SDS011;28341;52.064;4.920;2023-05-21T05:12:49;7.57;;;6.15;;
42702;SDS011;28341;52.064;4.920;2023-05-21T05:14:56;9.32;;;6.03;;
42702;SDS011;28341;52.064;4.920;2023-05-21T05:17:01;9.23;;;6.00;;
42702;SDS011;28341;52.064;4.920;2023-05-21T05:19:07;7.22;;;5.72;;
42702;SDS011;28341;52.064;4.920;2023-05-21T05:21:11;9.15;;;6.05;;
42702;SDS011;28341;52.064;4.920;2023-05-21T05:23:16;9.68;;;6.47;;
42702;SDS011;28341;52.064;4.920;2023-05-21T05:25:20;6.88;;;5.30;;
42702;SDS011;28341;52.064;4.920;2023-05-21T05:27:25;8.20;;;6.13;;
42702;SDS011;28341;52.064;4.920;2023-05-21T05:29:29;10.15;;;6.03;;
42702;SDS011;28341;52.064;4.920;2023-05-21T05:31:36;7.55;;;6.35;;
42702;SDS011;28341;52.064;4.920;2023-05-21T05:33:40;7.32;;;6.05;;
42702;SDS011;28341;52.064;4.920;2023-05-21T05:35:45;8.73;;;5.88;;
42702;SDS011;28341;52.064;4.920;2023-05-21T05:37:50;9.20;;;6.18;;
42702;SDS011;28341;52.064;4.920;2023-05-21T05:39:55;6.88;;;6.10;;
42702;SDS011;28341;52.064;4.920;2023-05-21T05:42:00;7.68;;;6.10;;
42702;SDS011;28341;52.064;4.920;2023-05-21T05:44:05;10.73;;;6.72;;
42702;SDS011;28341;52.064;4.920;2023-05-21T05:46:11;11.45;;;6.85;;
42702;SDS011;28341;52.064;4.920;2023-05-21T05:48:17;9.60;;;7.15;;
42702;SDS011;28341;52.064;4.920;2023-05-21T05:50:22;9.55;;;6.93;;
42702;SDS011;28341;52.064;4.920;2023-05-21T05:52:26;10.20;;;6.50;;
42702;SDS011;28341;52.064;4.920;2023-05-21T05:54:30;9.07;;;6.75;;
42702;SDS011;28341;52.064;4.920;2023-05-21T05:56:35;7.15;;;5.90;;
42702;SDS011;28341;52.064;4.920;2023-05-21T05:58:39;9.30;;;6.70;;
42702;SDS011;28341;52.064;4.920;2023-05-21T06:00:46;7.65;;;6.00;;
42702;SDS011;28341;52.064;4.920;2023-05-21T06:02:51;13.50;;;6.88;;
42702;SDS011;28341;52.064;4.920;2023-05-21T06:04:58;8.57;;;6.40;;
42702;SDS011;28341;52.064;4.920;2023-05-21T06:07:03;10.20;;;6.05;;
42702;SDS011;28341;52.064;4.920;2023-05-21T06:09:09;10.65;;;6.75;;
42702;SDS011;28341;52.064;4.920;2023-05-21T06:11:13;10.90;;;6.45;;
42702;SDS011;28341;52.064;4.920;2023-05-21T06:13:18;10.05;;;7.00;;
42702;SDS011;28341;52.064;4.920;2023-05-21T06:15:23;9.35;;;6.60;;
42702;SDS011;28341;52.064;4.920;2023-05-21T06:17:27;9.43;;;6.20;;
42702;SDS011;28341;52.064;4.920;2023-05-21T06:19:31;9.40;;;7.05;;
42702;SDS011;28341;52.064;4.920;2023-05-21T06:21:38;9.95;;;7.03;;
42702;SDS011;28341;52.064;4.920;2023-05-21T06:23:43;10.05;;;6.78;;
42702;SDS011;28341;52.064;4.920;2023-05-21T06:25:47;8.02;;;6.75;;
42702;SDS011;28341;52.064;4.920;2023-05-21T06:27:53;7.55;;;6.45;;
42702;SDS011;28341;52.064;4.920;2023-05-21T06:30:00;10.60;;;6.20;;
42702;SDS011;28341;52.064;4.920;2023-05-21T06:32:05;8.60;;;6.78;;
42702;SDS011;28341;52.064;4.920;2023-05-21T06:34:11;8.40;;;6.60;;
42702;SDS011;28341;52.064;4.920;2023-05-21T06:36:15;9.07;;;7.35;;
42702;SDS011;28341;52.064;4.920;2023-05-21T06:38:24;10.60;;;7.30;;
42702;SDS011;28341;52.064;4.920;2023-05-21T06:40:28;11.20;;;7.15;;
42702;SDS011;28341;52.064;4.920;2023-05-21T06:42:33;9.57;;;7.20;;
42702;SDS011;28341;52.064;4.920;2023-05-21T06:44:56;9.80;;;6.82;;
42702;SDS011;28341;52.064;4.920;2023-05-21T06:47:07;10.43;;;6.57;;
42702;SDS011;28341;52.064;4.920;2023-05-21T06:49:12;10.98;;;6.97;;
42702;SDS011;28341;52.064;4.920;2023-05-21T06:51:17;10.95;;;6.55;;
42702;SDS011;28341;52.064;4.920;2023-05-21T06:53:24;14.20;;;6.85;;
42702;SDS011;28341;52.064;4.920;2023-05-21T06:55:29;9.98;;;6.47;;
42702;SDS011;28341;52.064;4.920;2023-05-21T06:57:53;8.90;;;6.95;;
42702;SDS011;28341;52.064;4.920;2023-05-21T06:59:59;12.27;;;7.90;;
42702;SDS011;28341;52.064;4.920;2023-05-21T07:02:06;9.45;;;7.18;;
42702;SDS011;28341;52.064;4.920;2023-05-21T07:04:11;9.55;;;7.28;;
42702;SDS011;28341;52.064;4.920;2023-05-21T07:06:17;8.45;;;6.95;;
42702;SDS011;28341;52.064;4.920;2023-05-21T07:08:24;13.55;;;7.53;;
42702;SDS011;28341;52.064;4.920;2023-05-21T07:10:29;8.45;;;6.88;;
42702;SDS011;28341;52.064;4.920;2023-05-21T07:12:34;10.25;;;7.72;;
42702;SDS011;28341;52.064;4.920;2023-05-21T07:14:40;11.95;;;6.95;;
42702;SDS011;28341;52.064;4.920;2023-05-21T07:16:45;11.65;;;6.70;;
42702;SDS011;28341;52.064;4.920;2023-05-21T07:18:49;12.15;;;7.28;;
42702;SDS011;28341;52.064;4.920;2023-05-21T07:20:53;8.52;;;6.65;;
42702;SDS011;28341;52.064;4.920;2023-05-21T07:22:59;10.75;;;6.95;;
42702;SDS011;28341;52.064;4.920;2023-05-21T07:25:07;9.93;;;7.20;;
42702;SDS011;28341;52.064;4.920;2023-05-21T07:27:12;9.90;;;7.43;;
42702;SDS011;28341;52.064;4.920;2023-05-21T07:29:16;8.73;;;7.60;;
42702;SDS011;28341;52.064;4.920;2023-05-21T07:31:21;10.90;;;7.25;;
42702;SDS011;28341;52.064;4.920;2023-05-21T07:33:26;9.98;;;7.35;;
42702;SDS011;28341;52.064;4.920;2023-05-21T07:35:31;9.18;;;7.32;;
42702;SDS011;28341;52.064;4.920;2023-05-21T07:37:36;12.13;;;7.38;;
42702;SDS011;28341;52.064;4.920;2023-05-21T07:39:41;9.95;;;7.63;;
42702;SDS011;28341;52.064;4.920;2023-05-21T07:41:49;12.02;;;7.05;;
42702;SDS011;28341;52.064;4.920;2023-05-21T07:43:54;8.52;;;6.53;;
42702;SDS011;28341;52.064;4.920;2023-05-21T07:46:00;9.95;;;6.50;;
42702;SDS011;28341;52.064;4.920;2023-05-21T07:48:05;18.35;;;12.88;;
42702;SDS011;28341;52.064;4.920;2023-05-21T07:50:18;9.93;;;8.50;;
42702;SDS011;28341;52.064;4.920;2023-05-21T07:52:23;12.50;;;7.10;;
42702;SDS011;28341;52.064;4.920;2023-05-21T07:54:27;11.50;;;7.18;;
42702;SDS011;28341;52.064;4.920;2023-05-21T07:56:32;14.10;;;9.98;;
42702;SDS011;28341;52.064;4.920;2023-05-21T07:58:39;21.02;;;16.02;;
42702;SDS011;28341;52.064;4.920;2023-05-21T08:00:46;12.20;;;7.18;;
42702;SDS011;28341;52.064;4.920;2023-05-21T08:02:51;8.23;;;7.35;;
42702;SDS011;28341;52.064;4.920;2023-05-21T08:04:56;9.43;;;6.57;;
42702;SDS011;28341;52.064;4.920;2023-05-21T08:07:01;10.85;;;7.40;;
42702;SDS011;28341;52.064;4.920;2023-05-21T08:09:05;14.32;;;8.23;;
42702;SDS011;28341;52.064;4.920;2023-05-21T08:11:10;8.88;;;7.60;;
42702;SDS011;28341;52.064;4.920;2023-05-21T08:13:14;13.88;;;7.88;;
42702;SDS011;28341;52.064;4.920;2023-05-21T08:15:23;9.88;;;7.25;;
42702;SDS011;28341;52.064;4.920;2023-05-21T08:17:28;13.02;;;7.88;;
42702;SDS011;28341;52.064;4.920;2023-05-21T08:19:33;10.20;;;7.10;;
42702;SDS011;28341;52.064;4.920;2023-05-21T08:21:38;11.40;;;7.60;;
42702;SDS011;28341;52.064;4.920;2023-05-21T08:23:44;11.32;;;7.63;;
42702;SDS011;28341;52.064;4.920;2023-05-21T08:25:49;13.57;;;7.85;;
42702;SDS011;28341;52.064;4.920;2023-05-21T08:27:54;10.02;;;7.22;;
42702;SDS011;28341;52.064;4.920;2023-05-21T08:29:58;11.10;;;7.40;;
42702;SDS011;28341;52.064;4.920;2023-05-21T08:32:05;8.32;;;6.88;;
42702;SDS011;28341;52.064;4.920;2023-05-21T08:34:10;11.68;;;7.50;;
42702;SDS011;28341;52.064;4.920;2023-05-21T08:36:22;9.05;;;7.00;;
42702;SDS011;28341;52.064;4.920;2023-05-21T08:38:32;9.27;;;7.40;;
42702;SDS011;28341;52.064;4.920;2023-05-21T08:40:49;10.73;;;7.70;;
42702;SDS011;28341;52.064;4.920;2023-05-21T08:42:54;11.63;;;7.28;;
42702;SDS011;28341;52.064;4.920;2023-05-21T08:45:25;11.40;;;7.40;;
42702;SDS011;28341;52.064;4.920;2023-05-21T08:47:33;9.52;;;7.13;;
42702;SDS011;28341;52.064;4.920;2023-05-21T08:49:39;9.63;;;6.85;;
42702;SDS011;28341;52.064;4.920;2023-05-21T08:51:44;12.65;;;7.88;;
42702;SDS011;28341;52.064;4.920;2023-05-21T08:53:50;9.85;;;7.18;;
42702;SDS011;28341;52.064;4.920;2023-05-21T08:55:55;10.43;;;7.20;;
42702;SDS011;28341;52.064;4.920;2023-05-21T08:58:10;16.08;;;7.85;;
42702;SDS011;28341;52.064;4.920;2023-05-21T09:00:16;9.00;;;7.40;;
42702;SDS011;28341;52.064;4.920;2023-05-21T09:02:23;9.05;;;7.35;;
42702;SDS011;28341;52.064;4.920;2023-05-21T09:04:32;14.93;;;8.20;;
42702;SDS011;28341;52.064;4.920;2023-05-21T09:06:38;10.57;;;7.93;;
42702;SDS011;28341;52.064;4.920;2023-05-21T09:08:44;13.80;;;8.05;;
42702;SDS011;28341;52.064;4.920;2023-05-21T09:11:00;10.40;;;8.43;;
42702;SDS011;28341;52.064;4.920;2023-05-21T09:13:10;15.65;;;9.40;;
42702;SDS011;28341;52.064;4.920;2023-05-21T09:15:16;13.18;;;8.65;;
42702;SDS011;28341;52.064;4.920;2023-05-21T09:17:21;9.80;;;8.23;;
42702;SDS011;28341;52.064;4.920;2023-05-21T09:19:36;11.57;;;8.27;;
42702;SDS011;28341;52.064;4.920;2023-05-21T09:21:42;13.73;;;8.80;;
42702;SDS011;28341;52.064;4.920;2023-05-21T09:23:52;10.77;;;8.50;;
42702;SDS011;28341;52.064;4.920;2023-05-21T09:25:58;12.88;;;9.00;;
42702;SDS011;28341;52.064;4.920;2023-05-21T09:28:10;11.90;;;8.43;;
42702;SDS011;28341;52.064;4.920;2023-05-21T09:30:15;12.77;;;8.75;;
42702;SDS011;28341;52.064;4.920;2023-05-21T09:32:20;10.98;;;8.52;;
42702;SDS011;28341;52.064;4.920;2023-05-21T09:34:25;13.57;;;8.35;;
42702;SDS011;28341;52.064;4.920;2023-05-21T09:36:32;12.07;;;8.73;;
42702;SDS011;28341;52.064;4.920;2023-05-21T09:38:40;15.77;;;8.43;;
42702;SDS011;28341;52.064;4.920;2023-05-21T09:40:46;10.10;;;8.25;;
42702;SDS011;28341;52.064;4.920;2023-05-21T09:42:52;11.82;;;8.40;;
42702;SDS011;28341;52.064;4.920;2023-05-21T09:44:57;9.73;;;8.73;;
42702;SDS011;28341;52.064;4.920;2023-05-21T09:47:03;10.20;;;8.48;;
42702;SDS011;28341;52.064;4.920;2023-05-21T09:49:21;11.25;;;8.15;;
42702;SDS011;28341;52.064;4.920;2023-05-21T09:51:27;13.20;;;9.10;;
42702;SDS011;28341;52.064;4.920;2023-05-21T09:53:34;13.65;;;8.27;;
42702;SDS011;28341;52.064;4.920;2023-05-21T09:55:39;11.43;;;8.98;;
42702;SDS011;28341;52.064;4.920;2023-05-21T09:57:44;11.38;;;8.18;;
42702;SDS011;28341;52.064;4.920;2023-05-21T09:59:49;15.65;;;8.40;;
42702;SDS011;28341;52.064;4.920;2023-05-21T10:01:54;10.27;;;8.48;;
42702;SDS011;28341;52.064;4.920;2023-05-21T10:03:59;12.02;;;8.82;;
42702;SDS011;28341;52.064;4.920;2023-05-21T10:06:10;14.30;;;8.15;;
42702;SDS011;28341;52.064;4.920;2023-05-21T10:08:15;9.43;;;8.07;;
42702;SDS011;28341;52.064;4.920;2023-05-21T10:10:23;15.57;;;8.45;;
42702;SDS011;28341;52.064;4.920;2023-05-21T10:12:29;17.05;;;12.45;;
42702;SDS011;28341;52.064;4.920;2023-05-21T10:14:33;12.07;;;8.43;;
42702;SDS011;28341;52.064;4.920;2023-05-21T10:16:38;12.52;;;8.40;;
42702;SDS011;28341;52.064;4.920;2023-05-21T10:18:42;14.38;;;8.30;;
42702;SDS011;28341;52.064;4.920;2023-05-21T10:20:48;9.95;;;7.75;;
42702;SDS011;28341;52.064;4.920;2023-05-21T10:22:54;9.95;;;7.65;;
42702;SDS011;28341;52.064;4.920;2023-05-21T10:24:59;12.65;;;8.57;;
42702;SDS011;28341;52.064;4.920;2023-05-21T10:27:07;12.25;;;8.45;;
42702;SDS011;28341;52.064;4.920;2023-05-21T10:29:12;11.82;;;8.32;;
42702;SDS011;28341;52.064;4.920;2023-05-21T10:31:18;11.65;;;8.10;;
42702;SDS011;28341;52.064;4.920;2023-05-21T10:33:23;14.20;;;7.78;;
42702;SDS011;28341;52.064;4.920;2023-05-21T10:35:28;10.13;;;7.68;;
42702;SDS011;28341;52.064;4.920;2023-05-21T10:37:32;13.85;;;8.10;;
42702;SDS011;28341;52.064;4.920;2023-05-21T10:39:37;13.13;;;7.47;;
42702;SDS011;28341;52.064;4.920;2023-05-21T10:41:48;14.43;;;8.45;;
42702;SDS011;28341;52.064;4.920;2023-05-21T10:44:04;9.90;;;8.10;;
42702;SDS011;28341;52.064;4.920;2023-05-21T10:46:24;10.55;;;7.28;;
42702;SDS011;28341;52.064;4.920;2023-05-21T10:49:15;13.98;;;9.27;;
42702;SDS011;28341;52.064;4.920;2023-05-21T10:54:06;11.88;;;8.32;;
42702;SDS011;28341;52.064;4.920;2023-05-21T10:56:40;14.32;;;8.80;;
42702;SDS011;28341;52.064;4.920;2023-05-21T11:01:21;13.57;;;8.68;;
42702;SDS011;28341;52.064;4.920;2023-05-21T11:03:25;13.02;;;8.23;;
42702;SDS011;28341;52.064;4.920;2023-05-21T11:07:56;14.52;;;8.40;;
42702;SDS011;28341;52.064;4.920;2023-05-21T11:12:33;14.05;;;8.05;;
42702;SDS011;28341;52.064;4.920;2023-05-21T11:14:41;12.52;;;7.65;;
42702;SDS011;28341;52.064;4.920;2023-05-21T11:16:58;15.10;;;8.85;;
42702;SDS011;28341;52.064;4.920;2023-05-21T11:19:04;11.05;;;8.40;;
42702;SDS011;28341;52.064;4.920;2023-05-21T11:21:09;15.98;;;8.68;;
42702;SDS011;28341;52.064;4.920;2023-05-21T11:23:14;12.02;;;7.80;;
42702;SDS011;28341;52.064;4.920;2023-05-21T11:25:19;13.07;;;8.55;;
42702;SDS011;28341;52.064;4.920;2023-05-21T11:27:30;13.45;;;8.95;;
42702;SDS011;28341;52.064;4.920;2023-05-21T11:29:41;13.85;;;9.80;;
42702;SDS011;28341;52.064;4.920;2023-05-21T11:31:47;13.88;;;8.98;;
42702;SDS011;28341;52.064;4.920;2023-05-21T11:34:09;15.60;;;8.68;;
42702;SDS011;28341;52.064;4.920;2023-05-21T11:36:15;11.38;;;8.27;;
42702;SDS011;28341;52.064;4.920;2023-05-21T11:38:20;12.85;;;9.02;;
42702;SDS011;28341;52.064;4.920;2023-05-21T11:40:24;13.85;;;9.23;;
42702;SDS011;28341;52.064;4.920;2023-05-21T11:42:30;17.55;;;9.43;;
42702;SDS011;28341;52.064;4.920;2023-05-21T11:44:41;12.52;;;8.43;;
42702;SDS011;28341;52.064;4.920;2023-05-21T11:46:47;15.30;;;9.07;;
42702;SDS011;28341;52.064;4.920;2023-05-21T11:48:51;12.43;;;8.38;;
42702;SDS011;28341;52.064;4.920;2023-05-21T11:50:56;18.15;;;8.77;;
42702;SDS011;28341;52.064;4.920;2023-05-21T11:53:00;15.18;;;9.50;;
42702;SDS011;28341;52.064;4.920;2023-05-21T11:55:07;16.27;;;9.18;;
42702;SDS011;28341;52.064;4.920;2023-05-21T11:57:14;16.02;;;8.95;;
42702;SDS011;28341;52.064;4.920;2023-05-21T11:59:19;13.60;;;9.07;;
42702;SDS011;28341;52.064;4.920;2023-05-21T12:01:26;13.57;;;9.50;;
42702;SDS011;28341;52.064;4.920;2023-05-21T12:03:33;12.35;;;8.88;;
42702;SDS011;28341;52.064;4.920;2023-05-21T12:05:42;13.68;;;9.10;;
42702;SDS011;28341;52.064;4.920;2023-05-21T12:07:47;13.10;;;8.90;;
42702;SDS011;28341;52.064;4.920;2023-05-21T12:09:53;15.13;;;10.73;;
42702;SDS011;28341;52.064;4.920;2023-05-21T12:11:59;14.88;;;9.85;;
42702;SDS011;28341;52.064;4.920;2023-05-21T12:14:05;17.90;;;9.98;;
42702;SDS011;28341;52.064;4.920;2023-05-21T12:16:11;12.60;;;8.95;;
42702;SDS011;28341;52.064;4.920;2023-05-21T12:18:18;16.10;;;9.30;;
42702;SDS011;28341;52.064;4.920;2023-05-21T12:20:24;16.52;;;9.75;;
42702;SDS011;28341;52.064;4.920;2023-05-21T12:22:29;16.63;;;8.75;;
42702;SDS011;28341;52.064;4.920;2023-05-21T12:24:34;11.45;;;8.80;;
42702;SDS011;28341;52.064;4.920;2023-05-21T12:26:39;14.40;;;9.50;;
42702;SDS011;28341;52.064;4.920;2023-05-21T12:28:45;19.05;;;9.52;;
42702;SDS011;28341;52.064;4.920;2023-05-21T12:30:50;15.02;;;8.82;;
42702;SDS011;28341;52.064;4.920;2023-05-21T12:32:56;12.52;;;9.20;;
42702;SDS011;28341;52.064;4.920;2023-05-21T12:35:06;12.05;;;9.32;;
42702;SDS011;28341;52.064;4.920;2023-05-21T12:37:11;11.88;;;8.77;;
42702;SDS011;28341;52.064;4.920;2023-05-21T12:39:18;14.75;;;9.98;;
42702;SDS011;28341;52.064;4.920;2023-05-21T12:41:23;11.73;;;9.18;;
42702;SDS011;28341;52.064;4.920;2023-05-21T12:43:29;12.60;;;8.70;;
42702;SDS011;28341;52.064;4.920;2023-05-21T12:45:34;13.98;;;9.30;;
42702;SDS011;28341;52.064;4.920;2023-05-21T12:47:38;12.45;;;8.77;;